Time,TemperatureF,DewpointF,PressureIn,WindDirection,WindDirectionDegrees,WindSpeedMPH,WindSpeedGustMPH,Humidity,HourlyPrecipIn,Conditions,Clouds,dailyrainin,SoftwareType,DateUTC
2013-10-03 00:00:00,58.5,57.6,29.99,East,93,0.0,0.0,97,0.00,,,0.00,meteohub,2013-10-03 04:00:00,
2013-10-03 00:01:00,58.5,57.6,29.99,East,93,0.0,0.0,97,0.00,,,0.00,meteohub,2013-10-03 04:01:00,
2013-10-03 00:02:00,58.3,57.4,29.99,East,93,0.0,0.0,97,0.00,,,0.00,meteohub,2013-10-03 04:02:00,
2013-10-03 00:07:00,58.3,57.4,29.99,East,94,0.0,0.0,97,0.00,,,0.00,meteohub,2013-10-03 04:07:00,
2013-10-03 00:12:00,58.1,57.2,30.00,East,93,0.0,0.0,97,0.00,,,0.00,meteohub,2013-10-03 04:12:00,
2013-10-03 00:17:00,57.9,57.4,29.99,SSW,210,0.0,0.0,98,0.00,,,0.00,meteohub,2013-10-03 04:17:00,
2013-10-03 00:22:00,58.3,57.7,30.00,SW,226,0.0,0.0,98,0.00,,,0.00,meteohub,2013-10-03 04:22:00,
2013-10-03 00:27:00,58.3,57.7,30.00,SSW,210,0.0,1.0,98,0.00,,,0.00,meteohub,2013-10-03 04:27:00,
2013-10-03 00:32:00,58.3,57.7,30.00,South,191,0.0,1.0,98,0.00,,,0.00,meteohub,2013-10-03 04:32:00,
2013-10-03 00:37:00,58.3,57.7,30.00,SSW,195,2.0,2.0,98,0.00,,,0.00,meteohub,2013-10-03 04:37:00,
2013-10-03 00:42:00,58.6,58.3,30.00,SW,219,0.0,3.0,99,0.00,,,0.00,meteohub,2013-10-03 04:42:00,
2013-10-03 00:47:00,59.0,58.6,30.00,WSW,238,0.0,3.0,99,0.00,,,0.00,meteohub,2013-10-03 04:47:00,
2013-10-03 00:52:00,58.8,58.3,30.00,SW,226,0.0,3.0,98,0.00,,,0.00,meteohub,2013-10-03 04:52:00,
2013-10-03 00:57:00,59.0,58.5,30.00,WNW,288,1.0,2.0,98,0.00,,,0.00,meteohub,2013-10-03 04:57:00,
2013-10-03 01:02:00,59.2,58.6,30.00,WNW,289,0.0,1.0,98,0.00,,,0.00,meteohub,2013-10-03 05:02:00,
2013-10-03 01:07:00,58.8,57.9,30.00,WNW,290,0.0,1.0,97,0.00,,,0.00,meteohub,2013-10-03 05:07:00,
2013-10-03 01:12:00,58.8,57.9,30.01,North,358,0.0,1.0,97,0.00,,,0.00,meteohub,2013-10-03 05:12:00,
2013-10-03 01:17:00,58.8,57.9,30.01,NNW,340,0.0,0.0,97,0.00,,,0.00,meteohub,2013-10-03 05:17:00,
2013-10-03 01:22:00,58.8,57.9,30.01,SW,229,0.0,0.0,97,0.00,,,0.00,meteohub,2013-10-03 05:22:00,
2013-10-03 01:27:00,58.6,57.7,30.01,SW,232,0.0,0.0,97,0.00,,,0.00,meteohub,2013-10-03 05:27:00,
2013-10-03 01:32:00,59.0,58.1,30.01,West,275,0.0,2.0,97,0.00,,,0.00,meteohub,2013-10-03 05:32:00,
2013-10-03 01:37:00,59.4,58.3,30.01,West,264,1.0,2.0,96,0.00,,,0.00,meteohub,2013-10-03 05:37:00,
2013-10-03 01:42:00,59.7,58.3,30.01,West,280,2.0,2.0,95,0.00,,,0.00,meteohub,2013-10-03 05:42:00,
2013-10-03 01:47:00,59.9,58.1,30.01,WNW,295,2.0,3.0,94,0.00,,,0.00,meteohub,2013-10-03 05:47:00,
2013-10-03 01:52:00,60.1,58.1,30.01,West,281,0.0,5.0,93,0.00,,,0.00,meteohub,2013-10-03 05:52:00,
2013-10-03 01:57:00,60.1,57.7,30.01,NW,326,0.0,5.0,92,0.00,,,0.00,meteohub,2013-10-03 05:57:00,
2013-10-03 02:02:00,60.1,58.1,30.01,WNW,297,3.0,5.0,93,0.00,,,0.00,meteohub,2013-10-03 06:02:00,
2013-10-03 02:07:00,60.1,57.7,30.01,West,281,0.0,4.0,92,0.00,,,0.00,meteohub,2013-10-03 06:07:00,
2013-10-03 02:12:00,60.1,57.7,30.01,WSW,245,2.0,4.0,92,0.00,,,0.00,meteohub,2013-10-03 06:12:00,
2013-10-03 02:17:00,59.9,57.6,30.01,WNW,302,2.0,3.0,92,0.00,,,0.00,meteohub,2013-10-03 06:17:00,
2013-10-03 02:22:00,60.1,57.7,30.01,WNW,289,0.0,7.0,92,0.00,,,0.00,meteohub,2013-10-03 06:22:00,
2013-10-03 02:27:00,60.1,57.7,30.01,NW,304,0.0,7.0,92,0.00,,,0.00,meteohub,2013-10-03 06:27:00,
2013-10-03 02:32:00,60.1,57.4,30.01,NNW,330,1.0,7.0,91,0.00,,,0.00,meteohub,2013-10-03 06:32:00,
2013-10-03 02:37:00,60.1,57.4,30.01,NW,308,2.0,7.0,91,0.00,,,0.00,meteohub,2013-10-03 06:37:00,
2013-10-03 02:42:00,60.3,57.4,30.01,WNW,302,3.0,7.0,90,0.00,,,0.00,meteohub,2013-10-03 06:42:00,
2013-10-03 02:47:00,60.4,57.2,30.01,WNW,298,3.0,6.0,89,0.00,,,0.00,meteohub,2013-10-03 06:47:00,
2013-10-03 02:52:00,60.6,57.0,30.01,WNW,297,2.0,6.0,88,0.00,,,0.00,meteohub,2013-10-03 06:52:00,
2013-10-03 02:57:00,60.8,56.8,30.02,West,274,2.0,6.0,87,0.00,,,0.00,meteohub,2013-10-03 06:57:00,
2013-10-03 03:02:00,60.6,56.7,30.02,NW,310,2.0,5.0,87,0.00,,,0.00,meteohub,2013-10-03 07:02:00,
2013-10-03 03:07:00,60.4,56.5,30.02,WNW,287,0.0,5.0,87,0.00,,,0.00,meteohub,2013-10-03 07:07:00,
2013-10-03 03:12:00,60.1,56.5,30.02,West,281,0.0,5.0,88,0.00,,,0.00,meteohub,2013-10-03 07:12:00,
2013-10-03 03:17:00,59.7,56.1,30.02,SW,236,0.0,3.0,88,0.00,,,0.00,meteohub,2013-10-03 07:17:00,
2013-10-03 03:22:00,59.2,55.9,30.02,West,262,0.0,1.0,89,0.00,,,0.00,meteohub,2013-10-03 07:22:00,
2013-10-03 03:27:00,58.8,55.6,30.02,West,260,0.0,1.0,89,0.00,,,0.00,meteohub,2013-10-03 07:27:00,
2013-10-03 03:32:00,58.5,55.6,30.03,West,276,0.0,1.0,90,0.00,,,0.00,meteohub,2013-10-03 07:32:00,
2013-10-03 03:37:00,58.3,55.4,30.03,West,270,0.0,1.0,90,0.00,,,0.00,meteohub,2013-10-03 07:37:00,
2013-10-03 03:42:00,57.9,55.0,30.03,West,269,0.0,1.0,90,0.00,,,0.00,meteohub,2013-10-03 07:42:00,
2013-10-03 03:47:00,57.6,55.0,30.03,SE,128,0.0,1.0,91,0.00,,,0.00,meteohub,2013-10-03 07:47:00,
2013-10-03 03:52:00,57.4,55.0,30.03,SE,126,0.0,0.0,92,0.00,,,0.00,meteohub,2013-10-03 07:52:00,
2013-10-03 03:57:00,57.0,54.7,30.03,ESE,103,0.0,0.0,92,0.00,,,0.00,meteohub,2013-10-03 07:57:00,
2013-10-03 04:02:00,57.0,54.7,30.03,East,91,0.0,1.0,92,0.00,,,0.00,meteohub,2013-10-03 08:02:00,
2013-10-03 04:07:00,56.8,54.5,30.03,SE,131,0.0,1.0,92,0.00,,,0.00,meteohub,2013-10-03 08:07:00,
2013-10-03 04:12:00,56.8,54.9,30.03,East,94,0.0,1.0,93,0.00,,,0.00,meteohub,2013-10-03 08:12:00,
2013-10-03 04:17:00,57.0,55.0,30.03,North,8,0.0,1.0,93,0.00,,,0.00,meteohub,2013-10-03 08:17:00,
2013-10-03 04:22:00,57.4,55.0,30.03,SW,231,0.0,1.0,92,0.00,,,0.00,meteohub,2013-10-03 08:22:00,
2013-10-03 04:27:00,57.0,54.5,30.03,SE,142,0.0,1.0,91,0.00,,,0.00,meteohub,2013-10-03 08:27:00,
2013-10-03 04:32:00,57.0,54.7,30.03,WNW,302,0.0,1.0,92,0.00,,,0.00,meteohub,2013-10-03 08:32:00,
2013-10-03 04:37:00,57.4,54.9,30.03,NW,310,0.0,2.0,91,0.00,,,0.00,meteohub,2013-10-03 08:37:00,
2013-10-03 04:42:00,57.6,54.7,30.03,SW,228,0.0,3.0,90,0.00,,,0.00,meteohub,2013-10-03 08:42:00,
2013-10-03 04:47:00,57.6,54.7,30.03,NNE,16,0.0,3.0,90,0.00,,,0.00,meteohub,2013-10-03 08:47:00,
2013-10-03 04:52:00,57.7,54.5,30.03,NNW,328,0.0,3.0,89,0.00,,,0.00,meteohub,2013-10-03 08:52:00,
2013-10-03 04:57:00,57.9,54.7,30.03,North,349,0.0,2.0,89,0.00,,,0.00,meteohub,2013-10-03 08:57:00,
2013-10-03 05:02:00,57.9,54.3,30.04,ENE,73,0.0,3.0,88,0.00,,,0.00,meteohub,2013-10-03 09:02:00,
2013-10-03 05:08:00,57.7,54.1,30.04,NW,315,0.0,3.0,88,0.00,,,0.00,meteohub,2013-10-03 09:08:00,
2013-10-03 05:13:00,57.7,54.1,30.04,NNW,340,0.0,1.0,88,0.00,,,0.00,meteohub,2013-10-03 09:13:00,
2013-10-03 05:18:00,57.9,54.3,30.04,NNW,344,0.0,1.0,88,0.00,,,0.00,meteohub,2013-10-03 09:18:00,
2013-10-03 05:23:00,57.9,54.1,30.04,North,356,0.0,1.0,87,0.00,,,0.00,meteohub,2013-10-03 09:23:00,
2013-10-03 05:28:00,57.9,54.1,30.04,NW,320,0.0,2.0,87,0.00,,,0.00,meteohub,2013-10-03 09:28:00,
2013-10-03 05:33:00,57.9,54.1,30.04,NW,307,2.0,2.0,87,0.00,,,0.00,meteohub,2013-10-03 09:33:00,
2013-10-03 05:38:00,58.1,54.0,30.04,North,352,2.0,6.0,86,0.00,,,0.00,meteohub,2013-10-03 09:38:00,
2013-10-03 05:43:00,58.3,54.1,30.04,NW,325,0.0,6.0,86,0.00,,,0.00,meteohub,2013-10-03 09:43:00,
2013-10-03 05:48:00,58.3,54.1,30.04,NNW,330,2.0,6.0,86,0.00,,,0.00,meteohub,2013-10-03 09:48:00,
2013-10-03 05:53:00,58.3,53.8,30.04,NW,309,3.0,4.0,85,0.00,,,0.00,meteohub,2013-10-03 09:53:00,
2013-10-03 05:58:00,58.5,54.0,30.04,NW,311,3.0,5.0,85,0.00,,,0.00,meteohub,2013-10-03 09:58:00,
2013-10-03 06:03:00,58.3,53.8,30.05,North,350,2.0,5.0,85,0.00,,,0.00,meteohub,2013-10-03 10:03:00,
2013-10-03 06:08:00,57.9,53.4,30.04,NNW,337,0.0,5.0,85,0.00,,,0.00,meteohub,2013-10-03 10:08:00,
2013-10-03 06:13:00,57.6,53.1,30.04,NW,308,0.0,4.0,85,0.00,,,0.00,meteohub,2013-10-03 10:13:00,
2013-10-03 06:18:00,57.2,53.4,30.05,NW,321,3.0,3.0,87,0.00,,,0.00,meteohub,2013-10-03 10:18:00,
2013-10-03 06:23:00,57.7,53.6,30.05,NNW,342,2.0,4.0,86,0.00,,,0.00,meteohub,2013-10-03 10:23:00,
2013-10-03 06:28:00,57.9,53.4,30.05,NW,306,2.0,4.0,85,0.00,,,0.00,meteohub,2013-10-03 10:28:00,
2013-10-03 06:33:00,57.7,53.2,30.05,WNW,302,0.0,4.0,85,0.00,,,0.00,meteohub,2013-10-03 10:33:00,
2013-10-03 06:38:00,57.6,53.4,30.05,West,277,0.0,4.0,86,0.00,,,0.00,meteohub,2013-10-03 10:38:00,
2013-10-03 06:43:00,57.4,53.2,30.05,West,274,0.0,4.0,86,0.00,,,0.00,meteohub,2013-10-03 10:43:00,
2013-10-03 06:48:00,57.4,53.2,30.05,NW,308,0.0,2.0,86,0.00,,,0.00,meteohub,2013-10-03 10:48:00,
2013-10-03 06:53:00,57.6,53.1,30.05,NNW,340,1.0,3.0,85,0.00,,,0.00,meteohub,2013-10-03 10:53:00,
2013-10-03 06:58:00,57.9,53.1,30.06,WNW,302,0.0,3.0,84,0.00,,,0.00,meteohub,2013-10-03 10:58:00,
2013-10-03 07:03:00,58.5,53.2,30.06,WNW,298,3.0,4.0,83,0.00,,,0.00,meteohub,2013-10-03 11:03:00,
2013-10-03 07:08:00,58.5,53.2,30.06,NW,323,3.0,4.0,83,0.00,,,0.00,meteohub,2013-10-03 11:08:00,
2013-10-03 07:13:00,58.3,53.4,30.06,WNW,284,0.0,5.0,84,0.00,,,0.00,meteohub,2013-10-03 11:13:00,
2013-10-03 07:18:00,58.3,53.8,30.06,WSW,252,0.0,5.0,85,0.00,,,0.00,meteohub,2013-10-03 11:18:00,
2013-10-03 07:23:00,58.6,54.1,30.06,NNE,15,0.0,5.0,85,0.00,,,0.00,meteohub,2013-10-03 11:23:00,
2013-10-03 07:28:00,58.6,53.8,30.06,NE,39,0.0,1.0,84,0.00,,,0.00,meteohub,2013-10-03 11:28:00,
2013-10-03 07:33:00,58.6,53.4,30.06,North,0,0.0,2.0,83,0.00,,,0.00,meteohub,2013-10-03 11:33:00,
2013-10-03 07:38:00,58.8,54.0,30.06,NNW,335,0.0,2.0,84,0.00,,,0.00,meteohub,2013-10-03 11:38:00,
2013-10-03 07:43:00,59.2,54.0,30.07,NW,304,3.0,3.0,83,0.00,,,0.00,meteohub,2013-10-03 11:43:00,
2013-10-03 07:48:00,59.5,54.0,30.07,NNW,332,0.0,3.0,82,0.00,,,0.00,meteohub,2013-10-03 11:48:00,
2013-10-03 07:53:00,59.7,54.1,30.07,NW,315,0.0,3.0,82,0.00,,,0.00,meteohub,2013-10-03 11:53:00,
2013-10-03 07:58:00,60.3,54.3,30.07,NNW,344,0.0,3.0,81,0.00,,,0.00,meteohub,2013-10-03 11:58:00,
2013-10-03 08:03:00,60.6,54.5,30.07,North,354,0.0,2.0,80,0.00,,,0.00,meteohub,2013-10-03 12:03:00,
2013-10-03 08:08:00,61.2,54.9,30.08,North,358,0.0,2.0,80,0.00,,,0.00,meteohub,2013-10-03 12:08:00,
2013-10-03 08:13:00,61.3,54.9,30.08,NW,323,0.0,1.0,79,0.00,,,0.00,meteohub,2013-10-03 12:13:00,
2013-10-03 08:18:00,61.9,54.9,30.08,NNW,330,0.0,1.0,78,0.00,,,0.00,meteohub,2013-10-03 12:18:00,
2013-10-03 08:23:00,62.4,55.4,30.08,West,278,0.0,4.0,78,0.00,,,0.00,meteohub,2013-10-03 12:23:00,
2013-10-03 08:28:00,63.0,55.6,30.08,NW,312,0.0,4.0,77,0.00,,,0.00,meteohub,2013-10-03 12:28:00,
2013-10-03 08:34:00,63.5,55.4,30.08,NNW,328,2.0,3.0,75,0.00,,,0.00,meteohub,2013-10-03 12:34:00,
2013-10-03 08:39:00,63.9,55.4,30.09,NW,309,1.0,5.0,74,0.00,,,0.00,meteohub,2013-10-03 12:39:00,
2013-10-03 08:44:00,64.0,55.6,30.09,NW,312,2.0,5.0,74,0.00,,,0.00,meteohub,2013-10-03 12:44:00,
2013-10-03 08:49:00,64.2,55.4,30.09,WNW,288,5.0,5.0,73,0.00,,,0.00,meteohub,2013-10-03 12:49:00,
2013-10-03 08:54:00,64.8,55.9,30.09,NW,319,0.0,6.0,73,0.00,,,0.00,meteohub,2013-10-03 12:54:00,
2013-10-03 08:59:00,65.1,55.9,30.09,NW,319,1.0,6.0,72,0.00,,,0.00,meteohub,2013-10-03 12:59:00,
2013-10-03 09:04:00,65.7,55.9,30.09,North,9,4.0,5.0,71,0.00,,,0.00,meteohub,2013-10-03 13:04:00,
2013-10-03 09:09:00,66.0,56.3,30.09,NNW,329,3.0,7.0,71,0.00,,,0.00,meteohub,2013-10-03 13:09:00,
2013-10-03 09:14:00,66.6,56.1,30.09,WNW,283,3.0,7.0,69,0.00,,,0.00,meteohub,2013-10-03 13:14:00,
2013-10-03 09:19:00,66.7,55.8,30.09,NW,304,3.0,7.0,68,0.00,,,0.00,meteohub,2013-10-03 13:19:00,
2013-10-03 09:24:00,67.1,56.7,30.09,West,276,0.0,7.0,69,0.00,,,0.00,meteohub,2013-10-03 13:24:00,
2013-10-03 09:29:00,67.5,55.8,30.09,WNW,300,4.0,7.0,66,0.00,,,0.00,meteohub,2013-10-03 13:29:00,
2013-10-03 09:34:00,68.2,56.8,30.09,NNW,338,0.0,7.0,67,0.00,,,0.00,meteohub,2013-10-03 13:34:00,
2013-10-03 09:39:00,68.4,56.1,30.09,NW,323,5.0,6.0,65,0.00,,,0.00,meteohub,2013-10-03 13:39:00,
2013-10-03 09:44:00,68.4,56.5,30.09,North,352,1.0,6.0,66,0.00,,,0.00,meteohub,2013-10-03 13:44:00,
2013-10-03 09:49:00,68.7,56.8,30.09,NW,323,3.0,7.0,66,0.00,,,0.00,meteohub,2013-10-03 13:49:00,
2013-10-03 09:54:00,69.1,56.8,30.09,NW,315,0.0,7.0,65,0.00,,,0.00,meteohub,2013-10-03 13:54:00,
2013-10-03 09:59:00,69.4,57.2,30.09,NNE,15,4.0,6.0,65,0.00,,,0.00,meteohub,2013-10-03 13:59:00,
2013-10-03 10:04:00,69.8,57.6,30.09,NNE,15,0.0,4.0,65,0.00,,,0.00,meteohub,2013-10-03 14:04:00,
2013-10-03 10:09:00,70.3,57.2,30.09,NE,34,2.0,5.0,63,0.00,,,0.00,meteohub,2013-10-03 14:09:00,
2013-10-03 10:14:00,70.5,56.8,30.09,North,6,3.0,5.0,62,0.00,,,0.00,meteohub,2013-10-03 14:14:00,
2013-10-03 10:19:00,70.9,57.2,30.09,North,352,3.0,5.0,62,0.00,,,0.00,meteohub,2013-10-03 14:19:00,
2013-10-03 10:24:00,71.2,57.0,30.09,ENE,66,0.0,5.0,61,0.00,,,0.00,meteohub,2013-10-03 14:24:00,
2013-10-03 10:29:00,72.0,56.8,30.09,East,91,0.0,5.0,59,0.00,,,0.00,meteohub,2013-10-03 14:29:00,
2013-10-03 10:34:00,72.7,55.6,30.09,North,349,3.0,5.0,55,0.00,,,0.00,meteohub,2013-10-03 14:34:00,
2013-10-03 10:39:00,72.3,55.2,30.09,NNW,328,6.0,6.0,55,0.00,,,0.00,meteohub,2013-10-03 14:39:00,
2013-10-03 10:44:00,72.1,55.0,30.09,WNW,302,3.0,5.0,55,0.00,,,0.00,meteohub,2013-10-03 14:44:00,
2013-10-03 10:49:00,72.1,55.6,30.09,NNE,20,2.0,7.0,56,0.00,,,0.00,meteohub,2013-10-03 14:49:00,
2013-10-03 10:54:00,72.1,55.0,30.09,NNW,348,5.0,7.0,55,0.00,,,0.00,meteohub,2013-10-03 14:54:00,
2013-10-03 10:59:00,72.3,55.2,30.09,NNW,327,3.0,7.0,55,0.00,,,0.00,meteohub,2013-10-03 14:59:00,
2013-10-03 11:04:00,72.5,54.9,30.09,NE,41,1.0,8.0,54,0.00,,,0.00,meteohub,2013-10-03 15:04:00,
2013-10-03 11:31:00,74.7,55.4,30.09,ESE,110,2.0,5.0,51,0.00,,,0.00,meteohub,2013-10-03 15:31:00,
2013-10-03 11:36:00,74.8,55.6,30.09,SSE,163,4.0,5.0,51,0.00,,,0.00,meteohub,2013-10-03 15:36:00,
2013-10-03 11:41:00,75.4,55.4,30.09,East,80,0.0,4.0,50,0.00,,,0.00,meteohub,2013-10-03 15:41:00,
2013-10-03 11:46:00,75.0,54.0,30.09,SSE,148,0.0,4.0,48,0.00,,,0.00,meteohub,2013-10-03 15:46:00,
2013-10-03 11:51:00,75.7,54.7,30.09,SSE,166,0.0,5.0,48,0.00,,,0.00,meteohub,2013-10-03 15:51:00,
2013-10-03 11:56:00,76.3,54.5,30.09,SSW,205,3.0,5.0,47,0.00,,,0.00,meteohub,2013-10-03 15:56:00,
2013-10-03 12:01:00,76.1,55.0,30.08,SW,218,3.0,4.0,48,0.00,,,0.00,meteohub,2013-10-03 16:01:00,
2013-10-03 12:06:00,75.7,55.2,30.08,SSW,201,4.0,4.0,49,0.00,,,0.00,meteohub,2013-10-03 16:06:00,
2013-10-03 12:11:00,75.2,56.3,30.08,SSW,195,4.0,6.0,52,0.00,,,0.00,meteohub,2013-10-03 16:11:00,
2013-10-03 12:16:00,74.8,60.1,30.08,SSW,193,5.0,7.0,60,0.00,,,0.00,meteohub,2013-10-03 16:16:00,
2013-10-03 12:21:00,74.5,60.6,30.08,South,176,5.0,10.0,62,0.00,,,0.00,meteohub,2013-10-03 16:21:00,
2013-10-03 12:26:00,73.6,60.3,30.08,SSW,197,8.0,10.0,63,0.00,,,0.00,meteohub,2013-10-03 16:26:00,
2013-10-03 12:32:00,72.9,60.4,30.08,SSW,203,7.0,10.0,65,0.00,,,0.00,meteohub,2013-10-03 16:32:00,
2013-10-03 12:37:00,72.3,59.9,30.08,South,180,7.0,10.0,65,0.00,,,0.00,meteohub,2013-10-03 16:37:00,
2013-10-03 12:42:00,71.8,59.7,30.07,South,188,6.0,10.0,66,0.00,,,0.00,meteohub,2013-10-03 16:42:00,
2013-10-03 12:47:00,71.4,59.9,30.07,SSW,212,7.0,10.0,67,0.00,,,0.00,meteohub,2013-10-03 16:47:00,
2013-10-03 12:52:00,70.9,59.0,30.07,SW,222,9.0,10.0,66,0.00,,,0.00,meteohub,2013-10-03 16:52:00,
2013-10-03 12:57:00,70.9,59.0,30.07,SSW,198,7.0,12.0,66,0.00,,,0.00,meteohub,2013-10-03 16:57:00,
2013-10-03 13:02:00,71.1,58.3,30.07,SSW,208,9.0,12.0,64,0.00,,,0.00,meteohub,2013-10-03 17:02:00,
2013-10-03 13:07:00,71.1,58.3,30.07,SSW,203,9.0,11.0,64,0.00,,,0.00,meteohub,2013-10-03 17:07:00,
2013-10-03 13:12:00,71.4,58.6,30.07,SSW,198,7.0,10.0,64,0.00,,,0.00,meteohub,2013-10-03 17:12:00,
2013-10-03 13:17:00,71.6,58.3,30.06,SSW,203,9.0,10.0,63,0.00,,,0.00,meteohub,2013-10-03 17:17:00,
2013-10-03 13:22:00,71.4,57.2,30.06,South,180,8.0,10.0,61,0.00,,,0.00,meteohub,2013-10-03 17:22:00,
2013-10-03 13:27:00,71.2,57.9,30.06,SSW,201,9.0,11.0,63,0.00,,,0.00,meteohub,2013-10-03 17:27:00,
2013-10-03 13:32:00,71.2,58.5,30.06,SSW,200,10.0,11.0,64,0.00,,,0.00,meteohub,2013-10-03 17:32:00,
2013-10-03 13:37:00,71.1,58.6,30.06,SSW,200,7.0,11.0,65,0.00,,,0.00,meteohub,2013-10-03 17:37:00,
2013-10-03 13:42:00,71.1,59.2,30.06,SSW,195,8.0,11.0,66,0.00,,,0.00,meteohub,2013-10-03 17:42:00,
2013-10-03 13:47:00,70.9,59.7,30.06,South,190,8.0,11.0,68,0.00,,,0.00,meteohub,2013-10-03 17:47:00,
2013-10-03 13:52:00,70.5,60.6,30.06,SSW,207,8.0,11.0,71,0.00,,,0.00,meteohub,2013-10-03 17:52:00,
2013-10-03 13:57:00,70.3,60.1,30.06,SSW,200,8.0,11.0,70,0.00,,,0.00,meteohub,2013-10-03 17:57:00,
2013-10-03 14:02:00,70.3,59.4,30.05,SSW,195,9.0,11.0,68,0.00,,,0.00,meteohub,2013-10-03 18:02:00,
2013-10-03 14:07:00,70.2,59.5,30.05,SW,217,11.0,11.0,69,0.00,,,0.00,meteohub,2013-10-03 18:07:00,
2013-10-03 14:12:00,70.0,59.0,30.05,South,184,10.0,12.0,68,0.00,,,0.00,meteohub,2013-10-03 18:12:00,
2013-10-03 14:17:00,70.2,59.9,30.05,SSW,198,8.0,12.0,70,0.00,,,0.00,meteohub,2013-10-03 18:17:00,
2013-10-03 14:22:00,70.3,58.8,30.05,South,180,11.0,12.0,67,0.00,,,0.00,meteohub,2013-10-03 18:22:00,
2013-10-03 14:27:00,70.5,58.1,30.05,South,190,7.0,12.0,65,0.00,,,0.00,meteohub,2013-10-03 18:27:00,
2013-10-03 14:32:00,71.1,58.6,30.05,South,191,9.0,12.0,65,0.00,,,0.00,meteohub,2013-10-03 18:32:00,
2013-10-03 14:37:00,71.2,58.8,30.05,SW,222,8.0,12.0,65,0.00,,,0.00,meteohub,2013-10-03 18:37:00,
2013-10-03 14:42:00,71.4,59.0,30.05,South,190,7.0,11.0,65,0.00,,,0.00,meteohub,2013-10-03 18:42:00,
2013-10-03 14:47:00,71.4,58.6,30.05,South,183,7.0,11.0,64,0.00,,,0.00,meteohub,2013-10-03 18:47:00,
2013-10-03 14:52:00,72.0,54.3,30.05,SSW,210,10.0,11.0,54,0.00,,,0.00,meteohub,2013-10-03 18:52:00,
2013-10-03 14:57:00,72.3,53.8,30.05,SSW,211,8.0,12.0,52,0.00,,,0.00,meteohub,2013-10-03 18:57:00,
2013-10-03 15:02:00,72.3,52.7,30.05,SW,215,6.0,13.0,50,0.00,,,0.00,meteohub,2013-10-03 19:02:00,
2013-10-03 15:07:00,72.7,51.8,30.05,SSW,212,8.0,13.0,48,0.00,,,0.00,meteohub,2013-10-03 19:07:00,
2013-10-03 15:12:00,72.5,51.1,30.05,SSW,211,8.0,13.0,47,0.00,,,0.00,meteohub,2013-10-03 19:12:00,
2013-10-03 15:17:00,72.3,50.9,30.05,SSW,203,11.0,12.0,47,0.00,,,0.00,meteohub,2013-10-03 19:17:00,
2013-10-03 15:22:00,72.3,51.4,30.05,SSW,207,10.0,13.0,48,0.00,,,0.00,meteohub,2013-10-03 19:22:00,
2013-10-03 15:27:00,72.5,51.6,30.05,SW,236,9.0,13.0,48,0.00,,,0.00,meteohub,2013-10-03 19:27:00,
2013-10-03 15:32:00,72.7,51.3,30.04,SSW,212,6.0,13.0,47,0.00,,,0.00,meteohub,2013-10-03 19:32:00,
2013-10-03 15:37:00,72.7,52.3,30.04,SSW,203,7.0,11.0,49,0.00,,,0.00,meteohub,2013-10-03 19:37:00,
2013-10-03 15:42:00,72.5,52.9,30.04,SSW,208,7.0,10.0,50,0.00,,,0.00,meteohub,2013-10-03 19:42:00,
2013-10-03 15:47:00,72.1,52.0,30.04,SSW,203,4.0,10.0,49,0.00,,,0.00,meteohub,2013-10-03 19:47:00,
2013-10-03 15:52:00,72.1,53.6,30.04,SW,224,8.0,10.0,52,0.00,,,0.00,meteohub,2013-10-03 19:52:00,
2013-10-03 15:57:00,72.0,51.3,30.04,SW,221,9.0,10.0,48,0.00,,,0.00,meteohub,2013-10-03 19:57:00,
2013-10-03 16:02:00,71.6,53.1,30.04,SSW,210,6.0,11.0,52,0.00,,,0.00,meteohub,2013-10-03 20:02:00,
2013-10-03 16:07:00,71.4,51.8,30.04,SW,214,7.0,11.0,50,0.00,,,0.00,meteohub,2013-10-03 20:07:00,
2013-10-03 16:12:00,71.2,53.2,30.04,SSW,204,3.0,11.0,53,0.00,,,0.00,meteohub,2013-10-03 20:12:00,
2013-10-03 16:17:00,71.1,53.6,30.04,SSW,205,5.0,10.0,54,0.00,,,0.00,meteohub,2013-10-03 20:17:00,
2013-10-03 16:22:00,70.9,55.4,30.04,SSW,205,6.0,8.0,58,0.00,,,0.00,meteohub,2013-10-03 20:22:00,
2013-10-03 16:27:00,70.5,54.1,30.04,SW,214,6.0,10.0,56,0.00,,,0.00,meteohub,2013-10-03 20:27:00,
2013-10-03 16:32:00,70.5,54.1,30.04,SW,218,6.0,10.0,56,0.00,,,0.00,meteohub,2013-10-03 20:32:00,
2013-10-03 16:37:00,70.3,54.9,30.04,SW,214,5.0,10.0,58,0.00,,,0.00,meteohub,2013-10-03 20:37:00,
2013-10-03 16:42:00,70.2,54.7,30.04,SSW,205,7.0,10.0,58,0.00,,,0.00,meteohub,2013-10-03 20:42:00,
2013-10-03 16:47:00,70.0,54.5,30.04,SW,214,5.0,10.0,58,0.00,,,0.00,meteohub,2013-10-03 20:47:00,
2013-10-03 16:52:00,69.6,54.7,30.04,SW,215,6.0,10.0,59,0.00,,,0.00,meteohub,2013-10-03 20:52:00,
2013-10-03 16:57:00,69.6,55.0,30.04,SW,214,5.0,10.0,60,0.00,,,0.00,meteohub,2013-10-03 20:57:00,
2013-10-03 17:02:00,69.4,54.9,30.04,SW,232,5.0,9.0,60,0.00,,,0.00,meteohub,2013-10-03 21:02:00,
2013-10-03 17:07:00,69.4,54.9,30.04,SW,216,5.0,8.0,60,0.00,,,0.00,meteohub,2013-10-03 21:07:00,
2013-10-03 17:11:00,69.3,54.9,30.04,SW,217,4.0,7.0,60,0.00,,,0.00,meteohub,2013-10-03 21:11:00,
2013-10-03 17:16:00,69.1,54.7,30.04,WSW,242,4.0,7.0,60,0.00,,,0.00,meteohub,2013-10-03 21:16:00,
2013-10-03 17:21:00,69.1,55.0,30.04,SSW,200,3.0,7.0,61,0.00,,,0.00,meteohub,2013-10-03 21:21:00,
2013-10-03 17:26:00,68.9,54.5,30.04,SW,228,2.0,7.0,60,0.00,,,0.00,meteohub,2013-10-03 21:26:00,
2013-10-03 17:31:00,68.7,54.7,30.04,WSW,237,0.0,5.0,61,0.00,,,0.00,meteohub,2013-10-03 21:31:00,
2013-10-03 17:36:00,68.5,55.0,30.04,SW,225,2.0,5.0,62,0.00,,,0.00,meteohub,2013-10-03 21:36:00,
2013-10-03 17:41:00,68.2,55.6,30.04,SW,231,2.0,5.0,64,0.00,,,0.00,meteohub,2013-10-03 21:41:00,
2013-10-03 17:46:00,67.8,56.1,30.04,WSW,245,0.0,4.0,66,0.00,,,0.00,meteohub,2013-10-03 21:46:00,
2013-10-03 17:52:00,67.6,56.3,30.04,SW,228,0.0,3.0,67,0.00,,,0.00,meteohub,2013-10-03 21:52:00,
2013-10-03 17:57:00,67.3,56.3,30.04,West,260,0.0,3.0,68,0.00,,,0.00,meteohub,2013-10-03 21:57:00,
2013-10-03 18:02:00,66.9,56.8,30.04,SW,235,0.0,3.0,70,0.00,,,0.00,meteohub,2013-10-03 22:02:00,
2013-10-03 18:07:00,66.6,56.8,30.04,WSW,248,0.0,3.0,71,0.00,,,0.00,meteohub,2013-10-03 22:07:00,
2013-10-03 18:12:00,66.4,57.0,30.05,SSW,207,3.0,3.0,72,0.00,,,0.00,meteohub,2013-10-03 22:12:00,
2013-10-03 18:17:00,66.0,57.9,30.05,SW,215,3.0,3.0,75,0.00,,,0.00,meteohub,2013-10-03 22:17:00,
2013-10-03 18:22:00,66.0,58.3,30.05,SW,220,2.0,4.0,76,0.00,,,0.00,meteohub,2013-10-03 22:22:00,
2013-10-03 18:27:00,65.8,58.8,30.05,SW,224,0.0,4.0,78,0.00,,,0.00,meteohub,2013-10-03 22:27:00,
2013-10-03 18:32:00,65.5,58.8,30.05,SW,221,3.0,4.0,79,0.00,,,0.00,meteohub,2013-10-03 22:32:00,
2013-10-03 18:37:00,65.3,59.0,30.05,SW,219,3.0,4.0,80,0.00,,,0.00,meteohub,2013-10-03 22:37:00,
2013-10-03 18:42:00,64.9,59.0,30.05,SW,228,2.0,4.0,81,0.00,,,0.00,meteohub,2013-10-03 22:42:00,
2013-10-03 18:47:00,64.8,59.2,30.05,WSW,240,0.0,4.0,82,0.00,,,0.00,meteohub,2013-10-03 22:47:00,
2013-10-03 18:52:00,64.6,59.0,30.05,WSW,246,0.0,4.0,82,0.00,,,0.00,meteohub,2013-10-03 22:52:00,
2013-10-03 18:57:00,64.2,58.6,30.05,WSW,253,0.0,3.0,82,0.00,,,0.00,meteohub,2013-10-03 22:57:00,
2013-10-03 19:02:00,63.9,58.3,30.05,WSW,239,0.0,2.0,82,0.00,,,0.00,meteohub,2013-10-03 23:02:00,
2013-10-03 19:07:00,63.7,58.8,30.05,SW,235,0.0,3.0,84,0.00,,,0.00,meteohub,2013-10-03 23:07:00,
2013-10-03 19:12:00,63.5,58.6,30.06,WSW,255,1.0,3.0,84,0.00,,,0.00,meteohub,2013-10-03 23:12:00,
2013-10-03 19:17:00,63.3,58.5,30.05,West,259,0.0,3.0,84,0.00,,,0.00,meteohub,2013-10-03 23:17:00,
2013-10-03 19:22:00,63.3,58.1,30.05,SW,219,0.0,3.0,83,0.00,,,0.00,meteohub,2013-10-03 23:22:00,
2013-10-03 19:27:00,63.3,58.5,30.05,SW,218,1.0,2.0,84,0.00,,,0.00,meteohub,2013-10-03 23:27:00,
2013-10-03 19:32:00,63.1,57.9,30.05,West,270,0.0,2.0,83,0.00,,,0.00,meteohub,2013-10-03 23:32:00,
2013-10-03 19:37:00,63.0,57.7,30.05,West,275,2.0,2.0,83,0.00,,,0.00,meteohub,2013-10-03 23:37:00,
2013-10-03 19:42:00,63.1,57.6,30.06,WNW,287,2.0,3.0,82,0.00,,,0.00,meteohub,2013-10-03 23:42:00,
2013-10-03 19:47:00,63.1,57.2,30.06,West,259,0.0,3.0,81,0.00,,,0.00,meteohub,2013-10-03 23:47:00,
2013-10-03 19:52:00,63.1,57.2,30.06,West,270,0.0,3.0,81,0.00,,,0.00,meteohub,2013-10-03 23:52:00,
2013-10-03 19:57:00,63.1,57.2,30.06,West,271,0.0,3.0,81,0.00,,,0.00,meteohub,2013-10-03 23:57:00,
2013-10-03 20:02:00,63.1,57.2,30.06,WNW,289,0.0,2.0,81,0.00,,,0.00,meteohub,2013-10-04 00:02:00,
2013-10-03 20:07:00,62.8,56.8,30.06,WSW,255,0.0,2.0,81,0.00,,,0.00,meteohub,2013-10-04 00:07:00,
2013-10-03 20:12:00,62.6,57.0,30.06,West,281,0.0,2.0,82,0.00,,,0.00,meteohub,2013-10-04 00:12:00,
2013-10-03 20:17:00,62.4,56.8,30.06,WNW,283,0.0,2.0,82,0.00,,,0.00,meteohub,2013-10-04 00:17:00,
2013-10-03 20:22:00,62.2,57.0,30.06,West,271,0.0,2.0,83,0.00,,,0.00,meteohub,2013-10-04 00:22:00,
2013-10-03 20:27:00,61.9,56.7,30.06,West,276,0.0,2.0,83,0.00,,,0.00,meteohub,2013-10-04 00:27:00,
2013-10-03 20:32:00,61.7,56.8,30.06,West,263,0.0,2.0,84,0.00,,,0.00,meteohub,2013-10-04 00:32:00,
2013-10-03 20:37:00,61.7,56.8,30.06,West,272,0.0,1.0,84,0.00,,,0.00,meteohub,2013-10-04 00:37:00,
2013-10-03 20:42:00,61.5,56.7,30.06,WNW,293,1.0,2.0,84,0.00,,,0.00,meteohub,2013-10-04 00:42:00,
2013-10-03 20:47:00,61.3,56.8,30.06,West,280,0.0,2.0,85,0.00,,,0.00,meteohub,2013-10-04 00:47:00,
2013-10-03 20:52:00,61.2,57.0,30.06,West,275,0.0,2.0,86,0.00,,,0.00,meteohub,2013-10-04 00:52:00,
2013-10-03 20:57:00,61.2,57.0,30.07,West,279,0.0,2.0,86,0.00,,,0.00,meteohub,2013-10-04 00:57:00,
2013-10-03 21:02:00,61.2,57.0,30.07,West,280,0.0,1.0,86,0.00,,,0.00,meteohub,2013-10-04 01:02:00,
2013-10-03 21:07:00,61.2,57.2,30.07,West,280,0.0,1.0,87,0.00,,,0.00,meteohub,2013-10-04 01:07:00,
2013-10-03 21:12:00,61.2,57.2,30.07,WNW,288,0.0,1.0,87,0.00,,,0.00,meteohub,2013-10-04 01:12:00,
2013-10-03 21:17:00,61.3,57.4,30.07,WNW,290,0.0,1.0,87,0.00,,,0.00,meteohub,2013-10-04 01:17:00,
2013-10-03 21:22:00,61.2,57.2,30.07,WNW,289,0.0,2.0,87,0.00,,,0.00,meteohub,2013-10-04 01:22:00,
2013-10-03 21:27:00,61.0,57.0,30.08,WSW,238,0.0,2.0,87,0.00,,,0.00,meteohub,2013-10-04 01:27:00,
2013-10-03 21:32:00,60.8,57.2,30.08,SW,228,2.0,2.0,88,0.00,,,0.00,meteohub,2013-10-04 01:32:00,
2013-10-03 21:37:00,60.8,57.6,30.08,WSW,249,0.0,2.0,89,0.00,,,0.00,meteohub,2013-10-04 01:37:00,
2013-10-03 21:42:00,60.8,57.6,30.08,West,277,0.0,2.0,89,0.00,,,0.00,meteohub,2013-10-04 01:42:00,
2013-10-03 21:47:00,61.0,57.7,30.08,WNW,285,0.0,2.0,89,0.00,,,0.00,meteohub,2013-10-04 01:47:00,
2013-10-03 21:52:00,61.0,57.7,30.08,West,274,0.0,3.0,89,0.00,,,0.00,meteohub,2013-10-04 01:52:00,
2013-10-03 21:57:00,61.0,58.1,30.08,WNW,284,0.0,3.0,90,0.00,,,0.00,meteohub,2013-10-04 01:57:00,
2013-10-03 22:02:00,60.8,57.9,30.08,WNW,290,0.0,1.0,90,0.00,,,0.00,meteohub,2013-10-04 02:02:00,
2013-10-03 22:07:00,60.8,58.1,30.08,WNW,290,0.0,1.0,91,0.00,,,0.00,meteohub,2013-10-04 02:07:00,
2013-10-03 22:12:00,60.6,57.9,30.08,WNW,284,0.0,1.0,91,0.00,,,0.00,meteohub,2013-10-04 02:12:00,
2013-10-03 22:17:00,60.4,57.7,30.08,WNW,293,0.0,1.0,91,0.00,,,0.00,meteohub,2013-10-04 02:17:00,
2013-10-03 22:22:00,60.4,57.7,30.09,NW,309,1.0,2.0,91,0.00,,,0.00,meteohub,2013-10-04 02:22:00,
2013-10-03 22:27:00,60.6,57.9,30.09,NW,304,2.0,3.0,91,0.00,,,0.00,meteohub,2013-10-04 02:27:00,
2013-10-03 22:32:00,61.0,58.1,30.09,WNW,295,1.0,3.0,90,0.00,,,0.00,meteohub,2013-10-04 02:32:00,
2013-10-03 22:37:00,61.0,57.4,30.09,WNW,295,1.0,3.0,88,0.00,,,0.00,meteohub,2013-10-04 02:37:00,
2013-10-03 22:42:00,61.0,57.0,30.09,West,266,1.0,3.0,87,0.00,,,0.00,meteohub,2013-10-04 02:42:00,
2013-10-03 22:47:00,61.0,57.4,30.09,SSW,193,2.0,3.0,88,0.00,,,0.00,meteohub,2013-10-04 02:47:00,
2013-10-03 22:52:00,60.6,57.4,30.09,South,186,4.0,4.0,89,0.00,,,0.00,meteohub,2013-10-04 02:52:00,
2013-10-03 22:57:00,60.4,57.6,30.09,SW,228,0.0,6.0,90,0.00,,,0.00,meteohub,2013-10-04 02:57:00,
2013-10-03 23:02:00,60.1,57.2,30.09,SW,215,0.0,6.0,90,0.00,,,0.00,meteohub,2013-10-04 03:02:00,
2013-10-03 23:07:00,59.7,56.8,30.09,SSW,212,0.0,6.0,90,0.00,,,0.00,meteohub,2013-10-04 03:07:00,
2013-10-03 23:12:00,59.4,56.5,30.09,SW,214,0.0,3.0,90,0.00,,,0.00,meteohub,2013-10-04 03:12:00,
2013-10-03 23:17:00,59.0,56.1,30.09,SW,214,0.0,1.0,90,0.00,,,0.00,meteohub,2013-10-04 03:17:00,
2013-10-03 23:22:00,58.5,55.8,30.09,SSE,162,0.0,0.0,91,0.00,,,0.00,meteohub,2013-10-04 03:22:00,
2013-10-03 23:27:00,58.1,55.8,30.09,SSE,162,0.0,0.0,92,0.00,,,0.00,meteohub,2013-10-04 03:27:00,
2013-10-03 23:32:00,57.7,55.4,30.09,SSE,162,0.0,0.0,92,0.00,,,0.00,meteohub,2013-10-04 03:32:00,
2013-10-03 23:37:00,57.6,55.6,30.09,SSE,162,0.0,0.0,93,0.00,,,0.00,meteohub,2013-10-04 03:37:00,
2013-10-03 23:42:00,57.4,55.6,30.09,SSE,162,0.0,0.0,94,0.00,,,0.00,meteohub,2013-10-04 03:42:00,
2013-10-03 23:47:00,57.2,55.2,30.09,SE,145,0.0,0.0,93,0.00,,,0.00,meteohub,2013-10-04 03:47:00,
2013-10-03 23:52:00,57.0,55.2,30.09,SSE,163,0.0,0.0,94,0.00,,,0.00,meteohub,2013-10-04 03:52:00,
2013-10-03 23:57:00,57.2,55.8,30.09,SSE,168,0.0,2.0,95,0.00,,,0.00,meteohub,2013-10-04 03:57:00,